Time;durP1;ratioP1;P1;durP2;ratioP2;P2;SDS_P1;SDS_P2;PMS_P1;PMS_P2;Temp;Humidity;BMP_temperature;BMP_pressure;BME280_temperature;BME280_humidity;BME280_pressure;Samples;Min_cycle;Max_cycle;Signal;HPM_P1;HPM_P2
2021/11/18 00:02:09;;;;;;;21.75;8.07;;;7.50;99.90;;;;;;5003260;28;20042;-86
2021/11/18 00:04:37;;;;;;;29.73;7.43;;;7.10;99.90;;;;;;5029200;28;20121;-85
2021/11/18 00:07:05;;;;;;;22.92;8.50;;;6.90;99.90;;;;;;5026192;28;20247;-86
2021/11/18 00:09:33;;;;;;;23.75;7.65;;;6.80;99.90;;;;;;5010412;28;20320;-87
2021/11/18 00:12:02;;;;;;;24.70;9.60;;;6.80;99.90;;;;;;5014776;28;20050;-86
2021/11/18 00:14:30;;;;;;;24.92;8.02;;;6.80;99.90;;;;;;5012701;28;20046;-86
2021/11/18 00:16:58;;;;;;;26.13;9.77;;;6.80;99.90;;;;;;5012961;28;20041;-85
2021/11/18 00:19:26;;;;;;;26.75;7.03;;;6.80;99.90;;;;;;5014338;28;20046;-85
2021/11/18 00:21:54;;;;;;;23.25;8.95;;;6.80;99.90;;;;;;5034656;28;20032;-86
2021/11/18 00:24:22;;;;;;;30.35;7.93;;;6.80;99.90;;;;;;5018247;28;20669;-85
2021/11/18 00:26:54;;;;;;;32.78;11.00;;;6.70;99.90;;;;;;5051780;28;20072;-86
2021/11/18 00:29:23;;;;;;;25.05;7.53;;;6.70;99.90;;;;;;5031230;28;20045;-86
2021/11/18 00:31:51;;;;;;;27.27;10.43;;;6.70;99.90;;;;;;5044988;28;20057;-86
2021/11/18 00:34:22;;;;;;;46.67;8.82;;;6.80;99.90;;;;;;5011134;28;20374;-86
2021/11/18 00:36:50;;;;;;;24.77;6.78;;;7.90;99.90;;;;;;5012169;28;20038;-86
2021/11/18 00:39:22;;;;;;;38.38;9.77;;;6.70;99.90;;;;;;5032813;28;20041;-86
2021/11/18 00:41:50;;;;;;;31.80;8.53;;;7.10;99.90;;;;;;5015845;28;20058;-86
2021/11/18 00:44:20;;;;;;;38.05;11.00;;;6.70;99.90;;;;;;4985660;28;20521;-84
2021/11/18 00:46:48;;;;;;;29.73;9.75;;;7.30;99.90;;;;;;4999163;28;20057;-86
2021/11/18 00:49:16;;;;;;;26.40;9.05;;;6.70;99.90;;;;;;4649804;28;10000319;-86
2021/11/18 00:51:45;;;;;;;20.90;6.85;;;6.70;99.90;;;;;;5012152;28;20049;-85
2021/11/18 00:54:15;;;;;;;32.95;7.50;;;6.80;99.90;;;;;;4997292;28;20053;-86
2021/11/18 00:56:43;;;;;;;21.52;8.57;;;6.40;99.90;;;;;;4996501;28;20715;-85
2021/11/18 00:59:11;;;;;;;24.80;7.88;;;6.70;99.90;;;;;;5014772;28;20049;-85
2021/11/18 01:01:45;;;;;;;21.08;8.88;;;7.20;99.90;;;;;;4993716;28;20069;-85
2021/11/18 01:04:17;;;;;;;19.90;7.25;;;6.80;99.90;;;;;;4994618;28;20050;-86
2021/11/18 01:06:46;;;;;;;20.52;6.13;;;6.90;99.90;;;;;;4966474;28;20620;-85
2021/11/18 01:09:14;;;;;;;23.25;7.07;;;6.90;99.90;;;;;;4968157;28;20521;-86
2021/11/18 01:11:43;;;;;;;24.80;6.13;;;7.00;99.90;;;;;;4990066;28;20061;-85
2021/11/18 01:14:14;;;;;;;25.63;9.70;;;7.00;99.90;;;;;;4994545;28;20516;-85
2021/11/18 01:16:43;;;;;;;20.45;7.05;;;7.40;99.90;;;;;;4960521;28;20053;-85
2021/11/18 01:19:13;;;;;;;29.20;6.47;;;7.10;99.90;;;;;;4976401;28;20069;-85
2021/11/18 01:21:43;;;;;;;23.13;9.20;;;7.10;99.90;;;;;;4991736;28;20391;-86
2021/11/18 01:24:17;;;;;;;26.30;7.15;;;6.60;99.90;;;;;;4991291;28;20073;-85
2021/11/18 01:27:04;;;;;;;36.60;8.23;;;7.10;99.90;;;;;;4992688;28;20038;-86
2021/11/18 01:29:32;;;;;;;21.38;6.18;;;7.20;99.90;;;;;;4992694;28;20054;-86
2021/11/18 01:32:00;;;;;;;25.77;7.45;;;8.10;99.90;;;;;;5009256;28;20486;-85
2021/11/18 01:34:31;;;;;;;22.20;7.55;;;7.30;99.90;;;;;;4973919;28;20058;-85
2021/11/18 01:36:59;;;;;;;25.48;6.45;;;7.30;99.90;;;;;;4990693;28;20065;-86
2021/11/18 01:39:27;;;;;;;24.27;7.93;;;7.30;99.90;;;;;;4991216;28;20056;-86
2021/11/18 01:41:55;;;;;;;18.83;5.70;;;7.40;99.90;;;;;;5008990;28;20049;-87
2021/11/18 01:44:33;;;;;;;16.40;6.63;;;7.40;99.90;;;;;;5007139;28;20074;-85
2021/11/18 01:47:06;;;;;;;20.98;7.13;;;7.00;99.90;;;;;;4970601;28;20058;-87
2021/11/18 01:49:34;;;;;;;48.60;10.25;;;6.10;99.90;;;;;;4992620;28;20058;-86
2021/11/18 01:52:05;;;;;;;19.42;5.63;;;7.60;99.90;;;;;;5008120;28;20065;-85
2021/11/18 01:54:36;;;;;;;26.48;8.50;;;7.60;99.90;;;;;;4971665;28;20050;-86
2021/11/18 01:57:08;;;;;;;26.20;6.93;;;7.60;99.90;;;;;;4976423;28;20065;-85
2021/11/18 01:59:42;;;;;;;26.40;6.47;;;7.70;99.90;;;;;;4973982;28;20046;-85
2021/11/18 02:02:31;;;;;;;26.80;9.07;;;7.70;99.90;;;;;;4971574;28;20402;-85
2021/11/18 02:05:19;;;;;;;20.60;7.60;;;7.70;99.90;;;;;;4984180;28;20061;-87
2021/11/18 02:07:50;;;;;;;33.00;6.18;;;7.80;99.90;;;;;;4996790;28;20054;-85
2021/11/18 02:10:30;;;;;;;23.42;8.57;;;7.80;99.90;;;;;;4998879;28;20049;-85
2021/11/18 02:13:01;;;;;;;22.98;6.47;;;7.90;99.90;;;;;;4997306;28;20069;-85
2021/11/18 02:15:34;;;;;;;29.85;10.52;;;7.90;99.90;;;;;;5014239;28;20045;-87
2021/11/18 02:18:11;;;;;;;21.95;5.55;;;7.90;99.90;;;;;;4996651;28;20056;-84
2021/11/18 02:20:40;;;;;;;52.78;9.48;;;7.90;99.90;;;;;;4978310;28;20045;-87
2021/11/18 02:23:15;;;;;;;16.75;6.40;;;8.00;99.90;;;;;;5014195;28;20481;-86
2021/11/18 02:25:48;;;;;;;27.35;8.57;;;7.90;99.90;;;;;;5013735;28;20060;-85
2021/11/18 02:28:24;;;;;;;21.88;7.05;;;8.00;99.90;;;;;;5012781;28;20409;-86
2021/11/18 02:30:54;;;;;;;21.10;7.93;;;8.00;99.90;;;;;;4980994;28;20060;-85
2021/11/18 02:33:23;;;;;;;;;;;8.00;99.90;;;;;;4977780;28;20056;-85
2021/11/18 02:35:51;;;;;;;29.98;7.22;;;8.00;99.90;;;;;;4994665;28;19932;-85
2021/11/18 02:38:20;;;;;;;33.20;7.38;;;8.20;99.90;;;;;;5011854;28;20060;-85
2021/11/18 02:40:50;;;;;;;25.00;8.60;;;8.10;99.90;;;;;;5013282;28;20409;-85
2021/11/18 02:43:18;;;;;;;23.55;9.57;;;8.80;99.90;;;;;;4996748;28;20062;-85
2021/11/18 02:45:49;;;;;;;27.83;8.80;;;8.10;99.90;;;;;;4996587;28;20053;-86
2021/11/18 02:48:19;;;;;;;30.42;6.65;;;8.10;99.90;;;;;;5013934;28;20512;-85
2021/11/18 02:50:52;;;;;;;25.38;6.00;;;8.00;99.90;;;;;;5013846;28;20041;-85
2021/11/18 02:53:21;;;;;;;24.45;6.75;;;8.00;99.90;;;;;;5013206;28;20132;-85
2021/11/18 02:55:50;;;;;;;27.30;7.20;;;8.90;99.90;;;;;;4998547;28;20060;-85
2021/11/18 02:58:20;;;;;;;23.77;7.28;;;8.00;99.90;;;;;;4997134;28;20049;-86
2021/11/18 03:00:51;;;;;;;20.38;6.20;;;7.90;99.90;;;;;;5012651;28;20053;-86
2021/11/18 03:03:20;;;;;;;18.10;5.53;;;7.80;99.90;;;;;;4983681;28;20057;-86
2021/11/18 03:05:48;;;;;;;33.13;7.50;;;7.70;99.90;;;;;;4998587;28;20053;-85
2021/11/18 03:08:16;;;;;;;19.86;5.38;;;7.80;99.90;;;;;;4673883;28;10000396;-84
2021/11/18 03:10:45;;;;;;;26.20;6.45;;;8.40;99.90;;;;;;5023617;28;20048;-85
2021/11/18 03:13:13;;;;;;;22.13;6.50;;;7.70;99.90;;;;;;5043600;28;20042;-85
2021/11/18 03:15:41;;;;;;;31.45;9.40;;;7.60;99.90;;;;;;5010392;28;20816;-85
2021/11/18 03:18:09;;;;;;;24.52;5.93;;;7.60;99.90;;;;;;5017486;28;20057;-85
2021/11/18 03:20:40;;;;;;;25.70;9.20;;;7.60;99.90;;;;;;5018215;28;20068;-85
2021/11/18 03:23:09;;;;;;;21.85;7.55;;;7.50;99.90;;;;;;5017045;28;20061;-85
2021/11/18 03:25:39;;;;;;;28.40;5.95;;;8.20;99.90;;;;;;5005561;28;20054;-86
2021/11/18 03:28:22;;;;;;;19.80;7.15;;;7.40;99.90;;;;;;4988630;28;20053;-85
2021/11/18 03:30:52;;;;;;;24.58;8.10;;;7.40;99.90;;;;;;4998222;28;20056;-85
2021/11/18 03:33:25;;;;;;;36.05;6.47;;;7.40;99.90;;;;;;4998469;28;20046;-85
2021/11/18 03:35:54;;;;;;;20.20;6.25;;;7.40;99.90;;;;;;4997347;28;20053;-85
2021/11/18 03:38:25;;;;;;;32.33;8.95;;;7.40;99.90;;;;;;4991869;28;20053;-85
2021/11/18 03:41:26;;;;;;;21.90;7.83;;;7.40;99.90;;;;;;4987760;28;20049;-86
2021/11/18 03:43:56;;;;;;;;;;;7.30;99.90;;;;;;4994441;28;20643;-86
2021/11/18 03:46:34;;;;;;;22.08;7.68;;;7.30;99.90;;;;;;4982816;28;19932;-86
2021/11/18 03:49:08;;;;;;;24.23;7.88;;;7.30;99.90;;;;;;4994879;28;20053;-86
2021/11/18 03:51:41;;;;;;;19.92;8.10;;;7.30;99.90;;;;;;4979321;28;20073;-87
2021/11/18 03:54:12;;;;;;;19.25;5.53;;;7.30;99.90;;;;;;4997790;28;20057;-86
2021/11/18 03:56:41;;;;;;;24.15;7.00;;;7.20;99.90;;;;;;4981159;28;20068;-85
2021/11/18 03:59:13;;;;;;;30.58;8.10;;;7.20;99.90;;;;;;4998063;28;20057;-85
2021/11/18 04:01:42;;;;;;;29.45;8.32;;;8.00;99.90;;;;;;4998518;28;20057;-87
2021/11/18 04:04:16;;;;;;;20.87;6.47;;;7.20;99.90;;;;;;4999545;28;20052;-86
2021/11/18 04:06:47;;;;;;;28.17;6.88;;;7.20;99.90;;;;;;4998486;28;20060;-87
2021/11/18 04:09:16;;;;;;;22.83;6.47;;;7.20;99.90;;;;;;5015681;28;20037;-85
2021/11/18 04:11:47;;;;;;;20.60;7.22;;;7.20;99.90;;;;;;4981968;28;20417;-85
2021/11/18 04:14:17;;;;;;;26.10;7.63;;;7.20;99.90;;;;;;4996606;28;20111;-86
2021/11/18 04:16:48;;;;;;;39.42;10.40;;;7.20;99.90;;;;;;4997192;28;20049;-86
2021/11/18 04:19:18;;;;;;;27.02;5.60;;;7.30;99.90;;;;;;5014015;28;20374;-86
2021/11/18 04:21:47;;;;;;;19.95;7.55;;;8.20;99.90;;;;;;4998218;28;20061;-87
2021/11/18 04:24:20;;;;;;;42.15;11.13;;;7.20;99.90;;;;;;5030302;28;20053;-87
2021/11/18 04:26:51;;;;;;;37.17;9.32;;;7.20;99.90;;;;;;4982804;28;20056;-86
2021/11/18 04:29:27;;;;;;;27.65;8.65;;;7.10;99.90;;;;;;5014953;28;20041;-87
2021/11/18 04:32:02;;;;;;;31.17;8.93;;;7.10;99.90;;;;;;5000095;28;20046;-85
2021/11/18 04:34:31;;;;;;;21.38;7.15;;;7.10;99.90;;;;;;5001844;28;20045;-87
2021/11/18 04:37:03;;;;;;;22.25;6.25;;;7.10;99.90;;;;;;5002610;28;20049;-85
2021/11/18 04:39:32;;;;;;;22.90;5.95;;;7.00;99.90;;;;;;5004109;28;20041;-86
2021/11/18 04:42:00;;;;;;;24.40;5.82;;;7.00;99.90;;;;;;5003102;28;20567;-85
2021/11/18 04:44:29;;;;;;;21.30;7.88;;;6.90;99.90;;;;;;5018392;28;20056;-87
2021/11/18 04:46:59;;;;;;;39.80;9.85;;;6.80;99.90;;;;;;5018719;28;20052;-86
2021/11/18 04:49:29;;;;;;;25.48;9.80;;;6.80;99.90;;;;;;5002270;28;20056;-86
2021/11/18 04:51:59;;;;;;;29.55;9.43;;;6.80;99.90;;;;;;4985334;28;20065;-86
2021/11/18 04:54:27;;;;;;;24.70;6.68;;;7.10;99.90;;;;;;5002332;28;20045;-87
2021/11/18 04:56:55;;;;;;;19.80;7.03;;;6.70;99.90;;;;;;5036774;28;20049;-87
2021/11/18 04:59:24;;;;;;;29.20;6.15;;;6.60;99.90;;;;;;5003750;28;20041;-86
2021/11/18 05:01:52;;;;;;;28.50;8.65;;;6.60;99.90;;;;;;4988212;28;20054;-86
2021/11/18 05:04:21;;;;;;;25.73;7.45;;;6.60;99.90;;;;;;5006518;28;20046;-86
2021/11/18 05:06:49;;;;;;;22.25;6.22;;;7.70;99.90;;;;;;4998994;28;20061;-87
2021/11/18 05:09:17;;;;;;;23.50;8.35;;;6.60;99.90;;;;;;5008611;28;20049;-88
2021/11/18 05:11:45;;;;;;;29.95;9.30;;;6.60;99.90;;;;;;4662404;28;9999669;-88
2021/11/18 05:14:14;;;;;;;35.80;8.40;;;6.70;99.90;;;;;;5007975;28;20057;-87
2021/11/18 05:16:42;;;;;;;30.33;8.80;;;6.70;99.90;;;;;;4994977;28;20045;-87
2021/11/18 05:19:10;;;;;;;24.02;6.70;;;6.80;99.90;;;;;;4996592;28;20053;-87
2021/11/18 05:21:41;;;;;;;34.25;7.18;;;8.00;99.90;;;;;;5026907;28;20038;-89
2021/11/18 05:24:10;;;;;;;27.92;5.88;;;7.00;99.90;;;;;;5009124;28;20053;-86
2021/11/18 05:26:39;;;;;;;20.42;6.47;;;7.00;99.90;;;;;;5026384;28;20053;-88
2021/11/18 05:29:09;;;;;;;20.88;6.50;;;7.20;99.90;;;;;;5009613;28;20061;-86
2021/11/18 05:31:36;;;;;;;30.15;6.90;;;7.20;99.90;;;;;;4993174;28;20056;-88
2021/11/18 05:34:40;;;;;;;26.52;8.05;;;7.30;99.90;;;;;;4960352;28;20062;-86
2021/11/18 05:37:12;;;;;;;22.90;6.78;;;7.30;99.90;;;;;;4995549;28;20512;-87
2021/11/18 05:39:40;;;;;;;30.17;6.57;;;7.30;99.90;;;;;;4990706;28;20398;-87
2021/11/18 05:42:10;;;;;;;26.58;7.60;;;7.40;99.90;;;;;;4999283;28;20054;-88
2021/11/18 05:44:37;;;;;;;31.42;7.97;;;7.40;99.90;;;;;;4971682;28;20049;-84
2021/11/18 05:47:05;;;;;;;19.75;5.40;;;7.50;99.90;;;;;;4993274;28;20052;-87
2021/11/18 05:49:33;;;;;;;23.13;5.97;;;7.50;99.90;;;;;;5009530;28;20495;-87
2021/11/18 05:52:13;;;;;;;21.15;5.95;;;7.50;99.90;;;;;;5006675;28;20557;-87
2021/11/18 05:54:42;;;;;;;23.95;6.05;;;7.60;99.90;;;;;;5007265;28;20060;-88
2021/11/18 05:57:10;;;;;;;15.13;5.43;;;7.70;99.90;;;;;;5024100;28;20053;-86
2021/11/18 05:59:38;;;;;;;16.92;5.70;;;7.70;99.90;;;;;;5007029;28;20050;-86
2021/11/18 06:02:06;;;;;;;26.35;8.05;;;7.80;99.90;;;;;;5042747;28;20052;-86
2021/11/18 06:04:34;;;;;;;21.98;7.03;;;7.90;99.90;;;;;;5003144;28;20045;-85
2021/11/18 06:07:05;;;;;;;17.50;5.25;;;7.80;99.90;;;;;;5023807;28;20049;-85
2021/11/18 06:09:33;;;;;;;20.45;7.63;;;7.90;99.90;;;;;;5024403;28;20058;-86
2021/11/18 06:12:06;;;;;;;22.13;6.70;;;7.90;99.90;;;;;;5004794;28;20061;-86
2021/11/18 06:14:36;;;;;;;30.85;5.50;;;7.90;99.90;;;;;;5016779;28;20038;-87
2021/11/18 06:17:05;;;;;;;16.60;5.57;;;7.90;99.90;;;;;;4975748;28;20540;-87
2021/11/18 06:19:34;;;;;;;18.98;5.85;;;7.90;99.90;;;;;;5000567;28;20050;-87
2021/11/18 06:22:03;;;;;;;21.10;5.78;;;7.90;99.90;;;;;;4985380;28;20073;-87
2021/11/18 06:24:42;;;;;;;22.50;7.43;;;7.90;99.90;;;;;;5001483;28;20064;-86
2021/11/18 06:27:10;;;;;;;21.27;5.70;;;8.00;99.90;;;;;;5004465;28;20057;-88
2021/11/18 06:29:38;;;;;;;16.13;5.57;;;7.90;99.90;;;;;;5037835;28;20398;-87
2021/11/18 06:32:07;;;;;;;20.92;7.05;;;7.90;99.90;;;;;;5002533;28;20080;-86
2021/11/18 06:34:37;;;;;;;13.57;5.65;;;7.90;99.90;;;;;;5002328;28;20050;-87
2021/11/18 06:37:06;;;;;;;24.63;6.80;;;7.90;99.90;;;;;;4996001;28;20524;-86
2021/11/18 06:39:40;;;;;;;21.05;5.82;;;7.90;99.90;;;;;;5029399;28;20045;-88
2021/11/18 06:42:10;;;;;;;29.98;7.75;;;7.80;99.90;;;;;;4979713;28;20072;-87
2021/11/18 06:44:42;;;;;;;21.48;5.60;;;7.80;99.90;;;;;;4995922;28;20046;-84
2021/11/18 06:47:20;;;;;;;30.98;8.48;;;7.80;99.90;;;;;;5021281;28;20072;-86
2021/11/18 06:50:19;;;;;;;22.35;7.47;;;7.80;99.90;;;;;;5022438;28;20064;-87
2021/11/18 06:52:53;;;;;;;32.08;9.68;;;7.80;99.90;;;;;;5000882;28;20049;-87
2021/11/18 06:55:22;;;;;;;18.77;5.50;;;7.80;99.90;;;;;;4979874;28;20049;-85
2021/11/18 06:57:51;;;;;;;19.90;6.18;;;7.70;99.90;;;;;;4995926;28;20589;-86
2021/11/18 07:00:21;;;;;;;29.95;5.82;;;8.40;99.90;;;;;;4996288;28;20393;-87
2021/11/18 07:02:51;;;;;;;20.95;5.78;;;7.70;99.90;;;;;;4996756;28;20057;-87
2021/11/18 07:05:20;;;;;;;26.85;6.05;;;7.70;99.90;;;;;;5035380;28;20053;-86
2021/11/18 07:07:50;;;;;;;24.37;8.30;;;7.70;99.90;;;;;;5006229;28;20065;-86
2021/11/18 07:10:24;;;;;;;18.45;5.28;;;7.70;99.90;;;;;;5019268;28;20294;-88
2021/11/18 07:13:18;;;;;;;;;;;7.60;99.90;;;;;;5020246;28;20062;-87
2021/11/18 07:15:47;;;;;;;21.75;6.47;;;7.60;99.90;;;;;;4981793;28;19921;-87
2021/11/18 07:18:16;;;;;;;22.15;6.82;;;7.60;99.90;;;;;;4993925;28;20060;-86
2021/11/18 07:20:45;;;;;;;15.85;6.00;;;8.20;99.90;;;;;;4979102;28;20508;-88
2021/11/18 07:23:16;;;;;;;26.40;6.57;;;7.60;99.90;;;;;;4979792;28;20062;-88
2021/11/18 07:25:49;;;;;;;30.88;10.23;;;7.50;99.90;;;;;;4968804;28;20041;-86
2021/11/18 07:28:21;;;;;;;15.45;4.50;;;7.50;99.90;;;;;;4985641;28;20054;-88
2021/11/18 07:30:53;;;;;;;21.85;5.88;;;7.50;99.90;;;;;;5017872;28;20489;-86
2021/11/18 07:33:22;;;;;;;31.35;7.07;;;7.60;99.90;;;;;;4999628;28;20786;-85
2021/11/18 07:35:53;;;;;;;22.38;5.55;;;8.40;99.90;;;;;;5010106;28;20050;-85
2021/11/18 07:38:25;;;;;;;25.00;5.53;;;7.70;99.90;;;;;;4977673;28;20038;-88
2021/11/18 07:40:54;;;;;;;38.17;10.68;;;7.70;99.90;;;;;;5031030;28;20060;-84
2021/11/18 07:43:29;;;;;;;24.95;7.95;;;7.90;99.90;;;;;;5010619;28;20049;-86
2021/11/18 07:46:49;;;;;;;42.10;5.80;;;7.80;99.90;;;;;;4976766;28;20081;-85
2021/11/18 07:49:24;;;;;;;27.17;5.45;;;7.80;99.90;;;;;;5021562;28;20047;-85
2021/11/18 07:51:52;;;;;;;33.30;10.27;;;7.90;99.90;;;;;;5009778;28;20072;-85
2021/11/18 07:54:24;;;;;;;22.40;8.00;;;7.90;99.90;;;;;;5009325;28;20052;-85
2021/11/18 07:56:52;;;;;;;18.60;5.65;;;8.00;99.90;;;;;;4976692;28;20068;-87
2021/11/18 07:59:22;;;;;;;21.65;5.07;;;8.00;99.90;;;;;;5026317;28;20398;-83
2021/11/18 08:01:54;;;;;;;25.25;6.10;;;8.10;99.90;;;;;;5010274;28;20045;-84
2021/11/18 08:04:25;;;;;;;28.65;5.90;;;8.20;99.90;;;;;;5025449;28;20045;-84
2021/11/18 08:06:55;;;;;;;20.27;5.40;;;8.20;99.90;;;;;;4976708;28;21699;-83
2021/11/18 08:09:28;;;;;;;26.85;7.22;;;8.30;99.90;;;;;;4993065;28;20054;-84
2021/11/18 08:11:58;;;;;;;19.27;5.10;;;8.40;99.90;;;;;;5002417;28;20049;-85
2021/11/18 08:14:27;;;;;;;26.23;5.88;;;8.50;99.90;;;;;;4993048;28;20388;-84
2021/11/18 08:16:58;;;;;;;25.48;5.55;;;8.50;99.90;;;;;;5008074;28;20064;-84
2021/11/18 08:19:27;;;;;;;27.95;7.28;;;8.60;99.90;;;;;;5013396;28;20406;-86
2021/11/18 08:22:04;;;;;;;18.27;6.75;;;8.60;99.90;;;;;;4997376;28;20060;-84
2021/11/18 08:24:34;;;;;;;40.03;6.70;;;8.70;99.90;;;;;;5014361;28;20045;-85
2021/11/18 08:27:03;;;;;;;24.90;6.28;;;8.80;99.90;;;;;;5012446;28;20246;-84
2021/11/18 08:29:36;;;;;;;19.48;5.90;;;8.80;99.90;;;;;;5005782;28;20045;-84
2021/11/18 08:32:05;;;;;;;32.28;5.70;;;8.90;99.90;;;;;;5013260;28;20052;-86
2021/11/18 08:34:47;;;;;;;27.65;7.00;;;9.00;99.90;;;;;;5020501;28;20045;-84
2021/11/18 08:37:20;;;;;;;16.80;4.55;;;9.00;99.90;;;;;;5015555;28;20041;-84
2021/11/18 08:39:48;;;;;;;32.03;6.57;;;9.00;99.90;;;;;;5021415;28;20088;-85
2021/11/18 08:42:21;;;;;;;24.35;5.60;;;9.10;99.90;;;;;;4999507;28;20057;-84
2021/11/18 08:44:56;;;;;;;16.23;6.10;;;9.20;99.90;;;;;;5005628;28;20537;-84
2021/11/18 08:47:27;;;;;;;20.33;5.60;;;9.20;99.90;;;;;;5021927;28;20050;-85
2021/11/18 08:50:00;;;;;;;26.33;5.25;;;9.30;99.90;;;;;;5014014;28;20045;-84
2021/11/18 08:52:32;;;;;;;13.43;4.65;;;9.30;99.90;;;;;;5020551;28;20045;-85
2021/11/18 08:55:03;;;;;;;20.00;8.30;;;9.40;99.90;;;;;;5020677;28;20041;-85
2021/11/18 08:57:32;;;;;;;22.25;4.45;;;9.50;99.90;;;;;;5013042;28;20064;-84
2021/11/18 09:00:36;;;;;;;31.73;5.70;;;9.50;99.90;;;;;;5015238;28;20227;-84
2021/11/18 09:03:18;;;;;;;18.48;5.47;;;9.60;99.90;;;;;;5024029;28;20540;-85
2021/11/18 09:05:47;;;;;;;22.30;9.20;;;9.60;99.90;;;;;;4996690;28;20417;-87
2021/11/18 09:08:15;;;;;;;24.40;8.38;;;9.70;99.90;;;;;;5011188;28;20053;-87
2021/11/18 09:10:50;;;;;;;28.58;7.30;;;9.70;99.90;;;;;;5011669;28;20053;-86
2021/11/18 09:13:20;;;;;;;12.10;4.43;;;9.80;99.90;;;;;;4993656;28;20504;-85
2021/11/18 09:15:54;;;;;;;16.92;6.03;;;9.80;99.90;;;;;;5005003;28;20057;-85
2021/11/18 09:18:24;;;;;;;20.60;5.07;;;9.90;99.90;;;;;;5005975;28;20583;-86
2021/11/18 09:20:54;;;;;;;16.95;3.75;;;10.60;99.90;;;;;;5024489;28;20054;-85
2021/11/18 09:23:29;;;;;;;20.83;4.75;;;10.10;99.90;;;;;;5015512;28;20060;-86
2021/11/18 09:26:01;;;;;;;19.48;4.60;;;10.10;99.90;;;;;;5005946;28;20412;-86
2021/11/18 09:28:29;;;;;;;29.48;6.65;;;10.10;99.90;;;;;;5008257;28;20056;-87
2021/11/18 09:31:28;;;;;;;14.35;5.60;;;10.20;99.90;;;;;;4993611;28;20288;-86
2021/11/18 09:33:56;;;;;;;16.83;4.90;;;10.20;99.90;;;;;;5009356;28;20524;-84
2021/11/18 09:36:27;;;;;;;17.25;6.47;;;10.30;99.90;;;;;;5009100;28;20060;-85
2021/11/18 09:38:59;;;;;;;23.98;5.78;;;10.30;99.90;;;;;;4999742;28;20045;-85
2021/11/18 09:41:28;;;;;;;19.83;6.55;;;10.30;99.90;;;;;;5014992;28;20049;-85
2021/11/18 09:44:49;;;;;;;16.90;5.93;;;10.40;99.90;;;;;;5001231;28;20133;-84
2021/11/18 09:48:04;;;;;;;18.88;5.68;;;10.50;99.90;;;;;;4983913;28;20462;-84
2021/11/18 09:50:58;;;;;;;17.73;4.93;;;10.50;99.90;;;;;;5013366;28;20596;-84
2021/11/18 09:53:47;;;;;;;25.20;8.40;;;10.60;99.90;;;;;;5029352;28;20576;-85
2021/11/18 09:56:34;;;;;;;;;;;10.60;99.90;;;;;;5014477;28;20050;-88
2021/11/18 09:59:15;;;;;;;21.40;7.10;;;10.70;99.90;;;;;;5016934;28;19921;-86
2021/11/18 10:02:18;;;;;;;16.20;5.07;;;10.70;99.90;;;;;;5019356;28;20048;-85
2021/11/18 10:04:54;;;;;;;32.28;7.00;;;10.80;99.90;;;;;;4976383;28;20053;-85
2021/11/18 10:07:59;;;;;;;19.38;5.32;;;10.80;99.90;;;;;;5020613;28;20060;-86
2021/11/18 10:11:10;;;;;;;20.83;6.13;;;10.90;99.90;;;;;;5015063;28;20037;-84
2021/11/18 10:14:08;;;;;;;14.38;6.55;;;10.90;99.90;;;;;;5022756;28;20056;-86
2021/11/18 10:16:45;;;;;;;13.15;4.63;;;11.00;99.90;;;;;;4999466;28;20049;-85
2021/11/18 10:19:18;;;;;;;20.35;6.18;;;11.10;99.90;;;;;;5010038;28;20044;-84
2021/11/18 10:21:46;;;;;;;22.10;6.10;;;11.10;99.90;;;;;;5009346;28;20061;-85
2021/11/18 10:24:23;;;;;;;17.25;5.43;;;11.10;99.90;;;;;;5026463;28;20511;-86
2021/11/18 10:27:09;;;;;;;20.25;6.28;;;11.20;99.90;;;;;;5019484;28;20378;-86
2021/11/18 10:30:04;;;;;;;16.90;4.17;;;11.30;99.90;;;;;;4656976;28;10000341;-87
2021/11/18 10:33:00;;;;;;;18.00;8.40;;;11.30;99.90;;;;;;5017912;28;20991;-85
2021/11/18 10:36:00;;;;;;;15.50;5.82;;;11.30;99.90;;;;;;5022158;28;20519;-86
2021/11/18 10:39:03;;;;;;;22.58;6.00;;;11.00;99.90;;;;;;4992890;28;20567;-86
2021/11/18 10:41:37;;;;;;;21.40;4.38;;;11.40;99.90;;;;;;4990142;28;20045;-85
2021/11/18 10:44:42;;;;;;;22.85;5.43;;;11.50;99.90;;;;;;4997689;28;20045;-85
2021/11/18 10:47:18;;;;;;;15.23;3.88;;;11.50;99.90;;;;;;5017382;28;20060;-85
2021/11/18 10:50:09;;;;;;;20.58;5.15;;;11.60;99.90;;;;;;5017233;28;20033;-91
2021/11/18 10:52:46;;;;;;;28.33;8.05;;;11.60;99.90;;;;;;5018267;28;20045;-86
2021/11/18 10:55:21;;;;;;;24.00;5.10;;;11.70;99.90;;;;;;5003662;28;20049;-87
2021/11/18 10:58:35;;;;;;;19.45;5.60;;;11.70;99.90;;;;;;5019520;28;20060;-87
2021/11/18 11:01:34;;;;;;;15.32;5.05;;;11.80;99.90;;;;;;5002551;28;20056;-86
2021/11/18 11:04:06;;;;;;;27.20;6.85;;;11.90;99.90;;;;;;5013773;28;20049;-86
2021/11/18 11:06:51;;;;;;;13.77;4.78;;;11.90;99.90;;;;;;5002488;28;20083;-84
2021/11/18 11:09:28;;;;;;;21.13;5.45;;;11.90;99.90;;;;;;4994371;28;20414;-85
2021/11/18 11:12:24;;;;;;;26.05;6.03;;;12.00;99.90;;;;;;4974627;28;20058;-85
2021/11/18 11:15:14;;;;;;;23.38;5.57;;;12.00;99.90;;;;;;4985229;28;20069;-86
2021/11/18 11:18:03;;;;;;;17.23;4.88;;;12.00;99.90;;;;;;4978552;28;20541;-88
2021/11/18 11:21:08;;;;;;;13.77;6.00;;;12.10;99.90;;;;;;4984283;28;20494;-85
2021/11/18 11:24:07;;;;;;;13.23;4.13;;;12.20;99.90;;;;;;4969249;28;21429;-85
2021/11/18 11:26:38;;;;;;;22.40;5.90;;;12.20;99.90;;;;;;4978401;28;20049;-85
2021/11/18 11:29:27;;;;;;;16.70;4.17;;;12.30;99.90;;;;;;4981081;28;20065;-85
2021/11/18 11:32:32;;;;;;;12.40;3.65;;;12.30;99.90;;;;;;4982174;28;20042;-84
2021/11/18 11:35:25;;;;;;;14.07;4.15;;;12.40;99.90;;;;;;4986769;28;20884;-84
2021/11/18 11:38:21;;;;;;;9.77;3.70;;;12.40;99.90;;;;;;4981126;28;20050;-85
2021/11/18 11:40:54;;;;;;;15.70;4.15;;;12.50;99.90;;;;;;4981468;28;20043;-85
2021/11/18 11:43:30;;;;;;;13.00;4.18;;;12.60;99.90;;;;;;4987564;28;20049;-86
2021/11/18 11:46:19;;;;;;;12.75;3.72;;;12.70;99.90;;;;;;4988886;28;20066;-84
2021/11/18 11:48:57;;;;;;;12.30;4.90;;;12.80;99.90;;;;;;4988231;28;20057;-85
2021/11/18 11:51:45;;;;;;;18.20;4.03;;;12.90;99.90;;;;;;4979096;28;20042;-85
2021/11/18 11:54:16;;;;;;;13.73;4.15;;;12.90;99.90;;;;;;4993284;28;20054;-85
2021/11/18 11:56:48;;;;;;;11.45;3.58;;;13.00;99.90;;;;;;4992149;28;20053;-84
2021/11/18 11:59:24;;;;;;;;;;;13.00;99.90;;;;;;4975473;28;20043;-85
2021/11/18 12:02:03;;;;;;;16.23;4.50;;;13.00;99.90;;;;;;4996329;28;19948;-85
2021/11/18 12:04:44;;;;;;;21.02;6.07;;;13.10;99.90;;;;;;4997824;28;20038;-86
2021/11/18 12:07:58;;;;;;;26.10;6.13;;;13.20;99.90;;;;;;4999994;28;20058;-85
2021/11/18 12:10:42;;;;;;;17.02;4.90;;;12.80;99.90;;;;;;4964924;28;20051;-85
2021/11/18 12:13:46;;;;;;;16.55;5.53;;;13.30;99.90;;;;;;4986544;28;20053;-83
2021/11/18 12:16:30;;;;;;;19.65;7.18;;;13.50;99.90;;;;;;4990519;28;20057;-85
2021/11/18 12:19:05;;;;;;;;;;;13.40;99.90;;;;;;5005007;28;20505;-85
2021/11/18 12:21:33;;;;;;;10.73;3.75;;;13.50;99.90;;;;;;5002632;28;19948;-84
2021/11/18 12:24:08;;;;;;;16.23;3.90;;;13.50;99.90;;;;;;5001538;28;20417;-84
2021/11/18 12:27:11;;;;;;;13.80;4.85;;;13.60;99.90;;;;;;4986433;28;20061;-85
2021/11/18 12:29:46;;;;;;;11.68;3.35;;;13.60;99.90;;;;;;4998721;28;20046;-85
2021/11/18 12:32:17;;;;;;;11.18;4.75;;;13.70;99.90;;;;;;4987204;28;20050;-85
2021/11/18 12:35:06;;;;;;;7.95;3.20;;;13.80;99.90;;;;;;4970984;28;20285;-85
2021/11/18 12:37:56;;;;;;;10.07;4.32;;;13.80;99.90;;;;;;4982069;28;20059;-84
2021/11/18 12:40:59;;;;;;;13.18;4.50;;;13.80;99.90;;;;;;5001048;28;20054;-86
2021/11/18 12:43:49;;;;;;;11.43;4.35;;;14.10;99.90;;;;;;4992918;28;20056;-84
2021/11/18 12:46:27;;;;;;;7.20;3.08;;;14.50;99.90;;;;;;4991376;28;20053;-84
2021/11/18 12:48:55;;;;;;;9.65;3.10;;;14.20;99.90;;;;;;4985242;28;20065;-86
2021/11/18 12:51:48;;;;;;;12.85;3.78;;;14.30;99.90;;;;;;4980927;28;20057;-84
2021/11/18 12:54:53;;;;;;;10.63;3.10;;;14.30;99.90;;;;;;4980999;28;20069;-84
2021/11/18 12:57:32;;;;;;;12.13;3.25;;;14.40;99.90;;;;;;4998377;28;20045;-85
2021/11/18 13:00:35;;;;;;;9.88;3.28;;;14.30;99.90;;;;;;4985915;28;20058;-84
2021/11/18 13:03:06;;;;;;;5.90;2.67;;;14.20;99.90;;;;;;4978125;28;20066;-86
2021/11/18 13:05:45;;;;;;;8.00;2.80;;;14.20;99.90;;;;;;4990569;28;20397;-86
2021/11/18 13:08:41;;;;;;;8.77;3.28;;;14.10;99.90;;;;;;5021744;28;20045;-85
2021/11/18 13:11:24;;;;;;;11.38;3.58;;;14.10;99.90;;;;;;5018602;28;20064;-89
2021/11/18 13:14:10;;;;;;;10.60;2.80;;;14.00;99.90;;;;;;5023720;28;20053;-86
2021/11/18 13:16:46;;;;;;;13.55;4.00;;;14.00;99.90;;;;;;5017766;28;20041;-87
2021/11/18 13:19:27;;;;;;;11.30;3.80;;;14.00;99.90;;;;;;5020189;28;20045;-87
2021/11/18 13:22:19;;;;;;;11.67;3.60;;;14.00;99.90;;;;;;5004619;28;20049;-89
2021/11/18 13:24:53;;;;;;;;;;;13.90;99.90;;;;;;4994724;28;20075;-87
2021/11/18 13:27:26;;;;;;;12.73;3.90;;;13.70;99.90;;;;;;5007947;28;19925;-83
2021/11/18 13:30:29;;;;;;;20.73;6.13;;;14.00;99.90;;;;;;5008862;28;20079;-83